Time,TemperatureF,DewpointF,PressureIn,WindDirection,WindDirectionDegrees,WindSpeedMPH,WindSpeedGustMPH,Humidity,HourlyPrecipIn,Conditions,Clouds,dailyrainin,SoftwareType,DateUTC
2013-11-06 00:00:00,65.0,65.0,-100.00,SSE,164,5.0,-999.0,105,0.04,,,1.99,,2013-11-06 06:00:00,
2013-11-06 00:42:00,65.0,65.0,-100.00,SSE,164,5.0,-999.0,105,0.04,,,1.99,,2013-11-06 06:42:00,
2013-11-06 00:52:00,65.0,65.0,-100.00,SSE,164,5.0,-999.0,105,0.04,,,1.99,,2013-11-06 06:52:00,
2013-11-06 01:00:00,66.0,66.0,-100.00,South,171,8.0,-999.0,106,0.01,,,2.00,,2013-11-06 07:00:00,
2013-11-06 01:42:00,66.0,66.0,-100.00,South,171,8.0,-999.0,106,0.01,,,2.00,,2013-11-06 07:42:00,
2013-11-06 01:52:00,66.0,66.0,-100.00,South,171,8.0,-999.0,106,0.01,,,2.00,,2013-11-06 07:52:00,
2013-11-06 02:00:00,66.0,66.0,-100.00,South,187,9.0,-999.0,106,0.01,,,1.93,,2013-11-06 08:00:00,
2013-11-06 02:42:00,66.0,66.0,-100.00,South,187,9.0,-999.0,106,0.01,,,1.93,,2013-11-06 08:42:00,
2013-11-06 02:52:00,66.0,66.0,-100.00,South,187,9.0,-999.0,106,0.01,,,1.93,,2013-11-06 08:52:00,
2013-11-06 03:00:00,67.0,67.0,-100.00,SSW,201,7.0,-999.0,106,0.00,,,1.83,,2013-11-06 09:00:00,
2013-11-06 03:43:00,67.0,67.0,-100.00,SSW,201,7.0,-999.0,106,0.00,,,1.83,,2013-11-06 09:43:00,
2013-11-06 03:53:00,67.0,67.0,-100.00,SSW,201,7.0,-999.0,106,0.00,,,1.83,,2013-11-06 09:53:00,
2013-11-06 04:00:00,68.0,68.0,-100.00,SW,220,5.0,-999.0,106,0.11,,,1.90,,2013-11-06 10:00:00,
2013-11-06 04:42:00,68.0,68.0,-100.00,SW,220,5.0,-999.0,106,0.11,,,1.90,,2013-11-06 10:42:00,
2013-11-06 04:53:00,68.0,68.0,-100.00,SW,220,5.0,-999.0,106,0.11,,,1.90,,2013-11-06 10:53:00,
2013-11-06 05:00:00,66.0,66.0,-100.00,WSW,251,2.0,-999.0,106,0.02,,,1.91,,2013-11-06 11:00:00,
2013-11-06 05:42:00,66.0,66.0,-100.00,WSW,251,2.0,-999.0,106,0.02,,,1.91,,2013-11-06 11:42:00,
2013-11-06 05:52:00,66.0,66.0,-100.00,WSW,251,2.0,-999.0,106,0.02,,,1.91,,2013-11-06 11:52:00,
2013-11-06 06:00:00,59.0,59.0,-100.00,NNW,345,13.0,-999.0,105,0.05,,,1.96,,2013-11-06 12:00:00,
2013-11-06 06:42:00,59.0,59.0,-100.00,NNW,345,13.0,-999.0,105,0.05,,,1.96,,2013-11-06 12:42:00,
2013-11-06 06:52:00,59.0,59.0,-100.00,NNW,345,13.0,-999.0,105,0.05,,,1.96,,2013-11-06 12:52:00,
2013-11-06 07:00:00,57.0,57.0,-100.00,North,350,9.0,-999.0,105,0.00,,,1.94,,2013-11-06 13:00:00,
2013-11-06 07:42:00,57.0,57.0,-100.00,North,350,9.0,-999.0,105,0.00,,,1.94,,2013-11-06 13:42:00,
2013-11-06 07:52:00,57.0,57.0,-100.00,North,350,9.0,-999.0,105,0.00,,,1.94,,2013-11-06 13:52:00,
2013-11-06 08:00:00,53.0,53.0,-100.00,NNW,335,9.0,-999.0,105,0.00,,,1.85,,2013-11-06 14:00:00,
2013-11-06 08:42:00,53.0,53.0,-100.00,NNW,335,9.0,-999.0,105,0.00,,,1.85,,2013-11-06 14:42:00,
2013-11-06 08:52:00,53.0,53.0,-100.00,NNW,335,9.0,-999.0,105,0.00,,,1.85,,2013-11-06 14:52:00,
2013-11-06 09:00:00,51.0,51.0,-100.00,NNW,344,13.0,-999.0,105,0.00,,,1.75,,2013-11-06 15:00:00,
2013-11-06 09:43:00,51.0,51.0,-100.00,NNW,344,13.0,-999.0,105,0.00,,,1.75,,2013-11-06 15:43:00,
2013-11-06 09:54:00,51.0,51.0,-100.00,NNW,344,13.0,-999.0,105,0.00,,,1.75,,2013-11-06 15:54:00,
2013-11-06 10:00:00,49.0,49.0,-100.00,NNW,344,13.0,-999.0,104,0.00,,,1.75,,2013-11-06 16:00:00,
2013-11-06 10:43:00,49.0,49.0,-100.00,NNW,344,13.0,-999.0,104,0.00,,,1.75,,2013-11-06 16:43:00,
2013-11-06 10:53:00,49.0,49.0,-100.00,NNW,344,13.0,-999.0,104,0.00,,,1.75,,2013-11-06 16:53:00,
2013-11-06 11:00:00,49.0,49.0,-100.00,North,351,13.0,-999.0,104,0.00,,,1.75,,2013-11-06 17:00:00,
2013-11-06 11:43:00,49.0,49.0,-100.00,North,351,13.0,-999.0,104,0.00,,,1.75,,2013-11-06 17:43:00,
2013-11-06 11:52:00,49.0,49.0,-100.00,North,351,13.0,-999.0,104,0.00,,,1.75,,2013-11-06 17:52:00,
2013-11-06 12:00:00,49.0,49.0,-100.00,North,352,14.0,-999.0,102,0.00,,,1.75,,2013-11-06 18:00:00,
2013-11-06 12:42:00,49.0,49.0,-100.00,North,352,14.0,-999.0,102,0.00,,,1.75,,2013-11-06 18:42:00,
2013-11-06 12:52:00,49.0,49.0,-100.00,North,352,14.0,-999.0,102,0.00,,,1.75,,2013-11-06 18:52:00,
2013-11-06 13:00:00,50.0,50.0,-100.00,North,354,13.0,-999.0,102,0.00,,,1.75,,2013-11-06 19:00:00,
2013-11-06 13:42:00,50.0,50.0,-100.00,North,354,13.0,-999.0,102,0.00,,,1.75,,2013-11-06 19:42:00,
2013-11-06 13:52:00,50.0,50.0,-100.00,North,354,13.0,-999.0,102,0.00,,,1.75,,2013-11-06 19:52:00,
2013-11-06 20:00:00,45.0,45.0,-100.00,NNW,344,6.0,-999.0,100,0.00,,,0.53,,2013-11-07 02:00:00,
2013-11-06 20:53:00,45.0,45.0,-100.00,NNW,344,6.0,-999.0,100,0.00,,,0.53,,2013-11-07 02:53:00,
2013-11-06 21:00:00,44.0,44.0,-100.00,NNW,332,5.0,-999.0,101,0.00,,,0.32,,2013-11-07 03:00:00,
2013-11-06 21:44:00,44.0,44.0,-100.00,NNW,332,5.0,-999.0,101,0.00,,,0.32,,2013-11-07 03:44:00,
2013-11-06 21:55:00,44.0,44.0,-100.00,NNW,332,5.0,-999.0,101,0.00,,,0.32,,2013-11-07 03:55:00,
2013-11-06 22:00:00,43.0,43.0,-100.00,NW,321,3.0,-999.0,101,0.00,,,0.26,,2013-11-07 04:00:00,
2013-11-06 22:43:00,43.0,43.0,-100.00,NW,321,3.0,-999.0,101,0.00,,,0.26,,2013-11-07 04:43:00,
2013-11-06 22:53:00,43.0,43.0,-100.00,NW,321,3.0,-999.0,101,0.00,,,0.26,,2013-11-07 04:53:00,
2013-11-06 23:00:00,43.0,43.0,-100.00,NNW,338,5.0,-999.0,101,0.00,,,0.24,,2013-11-07 05:00:00,
2013-11-06 23:44:00,43.0,43.0,-100.00,NNW,338,5.0,-999.0,101,0.00,,,0.24,,2013-11-07 05:44:00,
2013-11-06 23:54:00,43.0,43.0,-100.00,NNW,338,5.0,-999.0,101,0.00,,,0.24,,2013-11-07 05:54:00,